createdAt,value
2018-12-17T00:00:58.778Z,99.97
2018-12-17T00:01:58.801Z,99.99
2018-12-17T00:02:58.801Z,99.97
2018-12-17T00:03:58.825Z,99.77
2018-12-17T00:04:58.837Z,99.40
2018-12-17T00:05:58.854Z,99.40
2018-12-17T00:06:58.861Z,99.68
2018-12-17T00:07:58.867Z,99.99
2018-12-17T00:08:58.883Z,99.77
2018-12-17T00:10:58.928Z,98.92
2018-12-17T00:12:58.928Z,99.02
2018-12-17T00:13:58.941Z,99.11
2018-12-17T00:14:58.962Z,99.21
2018-12-17T00:15:58.985Z,99.58
2018-12-17T00:16:58.989Z,99.58
2018-12-17T00:17:59.009Z,99.58
2018-12-17T00:18:59.010Z,99.40
2018-12-17T00:19:59.021Z,99.68
2018-12-17T00:20:59.034Z,99.58
2018-12-17T00:21:59.044Z,99.97
2018-12-17T00:22:59.088Z,99.99
2018-12-17T00:23:59.095Z,99.97
2018-12-17T00:24:59.106Z,99.99
2018-12-17T00:25:59.102Z,99.99
2018-12-17T00:27:59.133Z,99.87
2018-12-17T00:28:59.156Z,99.97
2018-12-17T00:29:59.156Z,99.99
2018-12-17T00:30:59.170Z,99.99
2018-12-17T00:31:59.184Z,99.99
2018-12-17T00:32:59.214Z,99.87
2018-12-17T00:33:59.216Z,99.97
2018-12-17T00:34:59.224Z,99.40
2018-12-17T00:35:59.232Z,99.87
2018-12-17T00:36:59.242Z,99.97
2018-12-17T00:37:59.256Z,99.99
2018-12-17T00:38:59.279Z,99.99
2018-12-17T00:39:59.280Z,99.77
2018-12-17T00:40:59.320Z,99.99
2018-12-17T00:41:59.404Z,99.99
2018-12-17T00:43:01.341Z,99.87
2018-12-17T00:43:59.340Z,99.99
2018-12-17T00:44:59.359Z,99.99
2018-12-17T00:45:59.377Z,99.99
2018-12-17T00:46:59.379Z,99.99
2018-12-17T00:47:59.403Z,99.99
2018-12-17T00:48:59.404Z,99.99
2018-12-17T00:49:59.478Z,99.99
2018-12-17T00:50:59.427Z,99.99
2018-12-17T00:51:59.446Z,99.99
2018-12-17T00:52:59.457Z,99.99
2018-12-17T00:53:59.495Z,99.97
2018-12-17T00:54:59.500Z,99.99
2018-12-17T00:55:59.493Z,99.97
2018-12-17T00:56:59.561Z,99.97
2018-12-17T00:57:59.516Z,99.68
2018-12-17T00:58:59.613Z,99.99
2018-12-17T00:59:59.548Z,99.99
2018-12-17T01:00:59.562Z,99.99
2018-12-17T01:01:59.571Z,99.99
2018-12-17T01:02:59.587Z,99.99
2018-12-17T01:03:59.602Z,99.99
2018-12-17T01:04:59.611Z,99.99
2018-12-17T01:05:59.622Z,99.99
2018-12-17T01:06:59.639Z,99.99
2018-12-17T01:07:59.652Z,99.99
2018-12-17T01:08:59.671Z,99.99
2018-12-17T01:09:59.674Z,99.99
2018-12-17T01:10:59.692Z,99.40
2018-12-17T01:11:59.702Z,99.68
2018-12-17T01:12:59.746Z,99.97
2018-12-17T01:13:59.770Z,99.77
2018-12-17T01:14:59.748Z,99.99
2018-12-17T01:15:59.762Z,99.99
2018-12-17T01:16:59.764Z,99.99
2018-12-17T01:17:59.777Z,99.99
2018-12-17T01:18:59.791Z,99.99
2018-12-17T01:19:59.814Z,99.99
2018-12-17T01:20:59.818Z,99.99
2018-12-17T01:21:59.831Z,99.99
2018-12-17T01:22:59.843Z,99.99
2018-12-17T01:23:59.853Z,99.99
2018-12-17T01:24:59.884Z,99.99
2018-12-17T01:25:59.881Z,99.58
2018-12-17T01:26:59.920Z,99.30
2018-12-17T01:27:59.908Z,99.77
2018-12-17T01:28:59.930Z,99.99
2018-12-17T01:29:59.940Z,99.99
2018-12-17T01:31:00.010Z,99.99
2018-12-17T01:31:59.959Z,99.77
2018-12-17T01:32:59.974Z,99.97
2018-12-17T01:34:00.027Z,99.99
2018-12-17T01:34:59.999Z,99.99
2018-12-17T01:36:00.014Z,99.99
2018-12-17T01:37:00.035Z,99.99
2018-12-17T01:38:00.038Z,99.99
2018-12-17T01:39:00.057Z,99.97
2018-12-17T01:40:00.062Z,99.58
2018-12-17T01:41:00.077Z,99.99
2018-12-17T01:42:00.119Z,99.99
2018-12-17T01:43:00.102Z,99.58
2018-12-17T01:44:00.129Z,99.11
2018-12-17T01:45:00.140Z,99.30
2018-12-17T01:46:00.144Z,98.92
2018-12-17T01:47:00.156Z,99.30
2018-12-17T01:48:00.221Z,99.30
2018-12-17T01:49:00.195Z,98.73
2018-12-17T01:50:00.197Z,99.21
2018-12-17T01:51:00.214Z,99.02
2018-12-17T01:52:00.237Z,99.21
2018-12-17T01:53:00.230Z,99.58
2018-12-17T01:54:00.258Z,99.68
2018-12-17T01:55:00.262Z,99.99
2018-12-17T01:56:00.274Z,99.99
2018-12-17T01:58:00.297Z,99.97
2018-12-17T02:00:00.329Z,99.99
2018-12-17T02:01:00.444Z,99.77
2018-12-17T02:02:00.351Z,99.30
2018-12-17T02:03:00.377Z,99.99
2018-12-17T02:04:00.379Z,99.68
2018-12-17T02:05:00.406Z,99.77
2018-12-17T02:06:00.402Z,99.97
2018-12-17T02:07:00.418Z,99.97
2018-12-17T02:08:00.434Z,99.58
2018-12-17T02:09:00.444Z,99.77
2018-12-17T02:10:00.475Z,99.87
2018-12-17T02:11:00.472Z,99.02
2018-12-17T02:12:00.485Z,99.11
2018-12-17T02:13:00.506Z,98.83
2018-12-17T02:14:00.518Z,98.92
2018-12-17T02:15:00.518Z,99.02
2018-12-17T02:18:00.566Z,99.30
2018-12-17T02:19:00.578Z,99.40
2018-12-17T02:20:00.594Z,99.40
2018-12-17T02:21:00.608Z,99.40
2018-12-17T02:22:00.612Z,99.40
2018-12-17T02:23:00.625Z,99.02
2018-12-17T02:24:00.636Z,99.21
2018-12-17T02:25:00.652Z,99.40
2018-12-17T02:26:00.666Z,99.87
2018-12-17T02:27:00.673Z,99.58
2018-12-17T02:28:00.692Z,99.21
2018-12-17T02:29:00.720Z,99.58
2018-12-17T02:30:00.719Z,99.02
2018-12-17T02:31:00.735Z,99.11
2018-12-17T02:32:00.745Z,99.02
2018-12-17T02:33:00.779Z,98.92
2018-12-17T02:34:00.767Z,98.92
2018-12-17T02:35:00.795Z,98.83
2018-12-17T02:36:00.795Z,99.02
2018-12-17T02:37:00.818Z,99.40
2018-12-17T02:38:00.831Z,99.21
2018-12-17T02:39:00.837Z,99.87
2018-12-17T02:40:00.862Z,99.58
2018-12-17T02:41:00.862Z,99.40
2018-12-17T02:42:00.886Z,99.30
2018-12-17T02:43:00.905Z,98.83
2018-12-17T02:44:00.898Z,98.73
2018-12-17T02:45:00.915Z,98.64
2018-12-17T02:46:00.922Z,98.45
2018-12-17T02:47:00.943Z,98.54
2018-12-17T02:48:00.963Z,98.54
2018-12-17T02:49:00.963Z,99.30
2018-12-17T02:50:01.031Z,99.02
2018-12-17T02:51:00.997Z,99.11
2018-12-17T02:52:01.013Z,99.21
2018-12-17T02:53:01.017Z,98.64
2018-12-17T02:54:01.034Z,98.64
2018-12-17T02:55:01.287Z,98.73
2018-12-17T02:56:01.060Z,99.30
2018-12-17T02:57:01.069Z,99.40
2018-12-17T02:58:01.085Z,99.58
2018-12-17T02:59:01.103Z,99.58
2018-12-17T03:00:01.125Z,99.11
2018-12-17T03:01:01.119Z,98.92
2018-12-17T03:02:01.145Z,98.92
2018-12-17T03:04:01.162Z,99.30
2018-12-17T03:05:01.177Z,98.92
2018-12-17T03:06:01.293Z,99.21
2018-12-17T03:07:01.207Z,98.92
2018-12-17T03:08:01.235Z,99.40
2018-12-17T03:09:01.235Z,99.02
2018-12-17T03:10:01.246Z,98.45
2018-12-17T03:11:01.277Z,98.45
2018-12-17T03:12:01.271Z,98.73
2018-12-17T03:13:01.287Z,99.21
2018-12-17T03:14:01.301Z,98.45
2018-12-17T03:15:01.327Z,98.92
2018-12-17T03:16:01.326Z,98.64
2018-12-17T03:17:01.340Z,98.83
2018-12-17T03:18:01.380Z,98.83
2018-12-17T03:19:01.375Z,98.83
2018-12-17T03:20:01.378Z,98.35
2018-12-17T03:21:01.386Z,98.73
2018-12-17T03:22:01.408Z,98.16
2018-12-17T03:23:01.415Z,98.26
2018-12-17T03:24:01.440Z,98.26
2018-12-17T03:25:01.444Z,98.92
2018-12-17T03:26:01.453Z,98.83
2018-12-17T03:27:01.486Z,99.02
2018-12-17T03:28:01.478Z,98.73
2018-12-17T03:29:01.494Z,98.73
2018-12-17T03:30:01.545Z,98.73
2018-12-17T03:31:01.520Z,99.11
2018-12-17T03:32:01.538Z,98.16
2018-12-17T03:33:01.548Z,97.22
2018-12-17T03:34:01.557Z,97.78
2018-12-17T03:35:01.601Z,98.07
2018-12-17T03:36:01.595Z,98.92
2018-12-17T03:37:01.610Z,98.35
2018-12-17T03:38:01.619Z,98.26
2018-12-17T03:39:01.629Z,97.97
2018-12-17T03:40:01.638Z,98.73
2018-12-17T03:41:01.651Z,98.16
2018-12-17T03:43:01.682Z,97.88
2018-12-17T03:44:01.691Z,97.78
2018-12-17T03:45:01.706Z,97.97
2018-12-17T03:46:01.724Z,98.07
2018-12-17T03:47:01.731Z,97.88
2018-12-17T03:48:01.741Z,98.26
2018-12-17T03:49:01.757Z,97.97
2018-12-17T03:50:01.769Z,98.16
2018-12-17T03:51:01.815Z,97.97
2018-12-17T03:53:01.810Z,98.35
2018-12-17T03:54:01.822Z,97.97
2018-12-17T03:56:01.855Z,97.50
2018-12-17T03:57:01.864Z,97.97
2018-12-17T03:58:01.877Z,98.07
2018-12-17T03:59:01.891Z,98.35
2018-12-17T04:00:01.919Z,98.26
2018-12-17T04:01:01.928Z,98.64
2018-12-17T04:02:01.930Z,98.92
2018-12-17T04:03:01.970Z,98.35
2018-12-17T04:04:01.963Z,98.92
2018-12-17T04:06:01.991Z,98.45
2018-12-17T04:07:01.995Z,98.92
2018-12-17T04:08:02.011Z,99.58
2018-12-17T04:09:02.093Z,99.97
2018-12-17T04:10:02.056Z,99.77
2018-12-17T04:11:02.051Z,99.02
2018-12-17T04:12:02.062Z,98.64
2018-12-17T04:13:02.091Z,99.11
2018-12-17T04:14:02.086Z,98.92
2018-12-17T04:15:02.102Z,98.83
2018-12-17T04:16:02.111Z,99.87
2018-12-17T04:17:02.129Z,99.97
2018-12-17T04:18:02.135Z,99.99
2018-12-17T04:19:02.160Z,99.99
2018-12-17T04:20:02.216Z,99.99
2018-12-17T04:21:02.182Z,99.99
2018-12-17T04:22:02.310Z,99.99
2018-12-17T04:23:02.210Z,99.99
2018-12-17T04:24:02.219Z,99.99
2018-12-17T04:25:02.263Z,99.99
2018-12-17T04:26:02.248Z,99.99
2018-12-17T04:27:02.266Z,99.99
2018-12-17T04:28:02.273Z,99.99
2018-12-17T04:29:06.734Z,99.99
2018-12-17T04:30:02.304Z,99.99
2018-12-17T04:31:02.306Z,99.99
2018-12-17T04:32:02.332Z,99.99
2018-12-17T04:33:02.334Z,99.99
2018-12-17T04:34:02.349Z,99.99
2018-12-17T04:35:02.367Z,99.99
2018-12-17T04:36:02.381Z,99.99
2018-12-17T04:37:02.442Z,99.99
2018-12-17T04:38:02.413Z,99.99
2018-12-17T04:39:02.428Z,99.99
2018-12-17T04:40:02.431Z,99.99
2018-12-17T04:41:02.446Z,99.99
2018-12-17T04:42:02.474Z,99.99
2018-12-17T04:43:02.476Z,99.99
2018-12-17T04:45:02.509Z,99.99
2018-12-17T04:46:02.503Z,99.99
2018-12-17T04:47:02.522Z,99.99
2018-12-17T04:48:02.542Z,99.99
2018-12-17T04:49:02.544Z,99.99
2018-12-17T04:50:02.574Z,99.99
2018-12-17T04:51:02.588Z,99.99
2018-12-17T04:52:02.599Z,99.99
2018-12-17T04:53:02.602Z,99.99
2018-12-17T04:54:02.611Z,99.99
2018-12-17T04:55:02.642Z,99.99
2018-12-17T04:56:02.635Z,99.99
2018-12-17T04:57:02.660Z,99.99
2018-12-17T04:58:02.664Z,99.99
2018-12-17T04:59:02.686Z,99.99
2018-12-17T05:00:02.699Z,99.99
2018-12-17T05:01:02.707Z,99.99
2018-12-17T05:02:02.714Z,99.99
2018-12-17T05:03:02.733Z,99.99
2018-12-17T05:04:02.741Z,99.99
2018-12-17T05:05:02.758Z,99.99
2018-12-17T05:06:02.768Z,99.99
2018-12-17T05:07:02.835Z,99.99
2018-12-17T05:08:02.799Z,99.99
2018-12-17T05:10:02.816Z,99.99
2018-12-17T05:11:02.867Z,99.99
2018-12-17T05:12:02.849Z,99.99
2018-12-17T05:13:02.869Z,99.99
2018-12-17T05:14:02.866Z,99.99
2018-12-17T05:15:03.829Z,99.99
2018-12-17T05:16:02.909Z,99.99
2018-12-17T05:17:02.924Z,99.99
2018-12-17T05:18:02.948Z,99.99
2018-12-17T05:19:02.939Z,99.99
2018-12-17T05:20:02.949Z,99.99
2018-12-17T05:21:02.963Z,99.99
2018-12-17T05:22:02.974Z,99.99
2018-12-17T05:23:03.018Z,99.99
2018-12-17T05:24:03.163Z,99.99
2018-12-17T05:25:03.023Z,99.99
2018-12-17T05:26:03.041Z,99.99
2018-12-17T05:27:03.048Z,99.99
2018-12-17T05:29:03.074Z,99.99
2018-12-17T05:30:03.082Z,99.99
2018-12-17T05:31:03.094Z,99.99
2018-12-17T05:32:03.128Z,99.99
2018-12-17T05:33:03.116Z,99.99
2018-12-17T05:34:03.131Z,99.99
2018-12-17T05:35:03.150Z,99.99
2018-12-17T05:36:03.154Z,99.99
2018-12-17T05:37:03.167Z,99.99
2018-12-17T05:38:03.183Z,99.99
2018-12-17T05:39:03.258Z,99.99
2018-12-17T05:40:03.210Z,99.99
2018-12-17T05:41:03.315Z,99.99
2018-12-17T05:42:03.232Z,99.99
2018-12-17T05:43:03.267Z,99.99
2018-12-17T05:44:03.258Z,99.99
2018-12-17T05:45:03.292Z,99.99
2018-12-17T05:46:03.285Z,99.99
2018-12-17T05:47:03.303Z,99.99
2018-12-17T05:48:03.308Z,99.99
2018-12-17T05:49:03.611Z,99.99
2018-12-17T05:50:03.336Z,99.99
2018-12-17T05:51:03.352Z,99.99
2018-12-17T05:52:03.364Z,99.99
2018-12-17T05:53:03.378Z,99.99
2018-12-17T05:54:03.396Z,99.99
2018-12-17T05:55:03.420Z,99.99
2018-12-17T05:56:03.776Z,99.99
2018-12-17T05:58:03.444Z,99.99
2018-12-17T05:59:03.453Z,99.99
2018-12-17T06:00:03.477Z,99.99
2018-12-17T06:01:03.481Z,99.99
2018-12-17T06:02:03.495Z,99.99
2018-12-17T06:03:03.516Z,99.99
2018-12-17T06:04:03.526Z,99.99
2018-12-17T06:05:03.543Z,99.99
2018-12-17T06:06:03.562Z,99.99
2018-12-17T06:07:03.559Z,99.99
2018-12-17T06:08:03.568Z,99.99
2018-12-17T06:09:03.579Z,99.99
2018-12-17T06:10:03.603Z,99.99
2018-12-17T06:11:03.613Z,99.99
2018-12-17T06:12:03.622Z,99.99
2018-12-17T06:13:03.668Z,99.99
2018-12-17T06:14:03.650Z,99.99
2018-12-17T06:15:03.662Z,99.99
2018-12-17T06:16:03.673Z,99.99
2018-12-17T06:17:03.687Z,99.99
2018-12-17T06:18:03.711Z,99.99
2018-12-17T06:19:03.716Z,99.99
2018-12-17T06:21:03.745Z,99.99
2018-12-17T06:22:03.758Z,99.99
2018-12-17T06:23:03.777Z,99.99
2018-12-17T06:24:03.787Z,99.99
2018-12-17T06:25:03.803Z,99.99
2018-12-17T06:26:03.910Z,99.99
2018-12-17T06:27:03.830Z,99.99
2018-12-17T06:28:03.833Z,99.99
2018-12-17T06:29:03.846Z,99.99
2018-12-17T06:30:03.926Z,99.99
2018-12-17T06:31:03.870Z,99.99
2018-12-17T06:32:03.883Z,99.99
2018-12-17T06:33:03.899Z,99.99
2018-12-17T06:34:03.914Z,99.99
2018-12-17T06:35:03.926Z,99.99
2018-12-17T06:36:03.941Z,99.99
2018-12-17T06:37:03.946Z,99.99
2018-12-17T06:38:03.971Z,99.99
2018-12-17T06:39:03.975Z,99.99
2018-12-17T06:40:09.996Z,99.99
2018-12-17T06:41:04.096Z,99.99
2018-12-17T06:42:04.023Z,99.99
2018-12-17T06:43:04.072Z,99.99
2018-12-17T06:44:04.045Z,99.99
2018-12-17T06:45:04.055Z,99.99
2018-12-17T06:46:04.066Z,99.99
2018-12-17T06:47:04.085Z,99.99
2018-12-17T06:48:04.088Z,99.99
2018-12-17T06:49:04.102Z,99.99
2018-12-17T06:50:04.118Z,99.99
2018-12-17T06:51:04.153Z,99.99
2018-12-17T06:52:04.149Z,99.99
2018-12-17T06:53:04.165Z,99.99
2018-12-17T06:54:04.178Z,99.99
2018-12-17T06:55:05.806Z,99.99
2018-12-17T06:57:04.207Z,99.99
2018-12-17T06:58:04.240Z,99.99
2018-12-17T06:59:04.233Z,99.99
2018-12-17T07:00:04.265Z,99.99
2018-12-17T07:01:04.265Z,99.99
2018-12-17T07:02:04.291Z,99.99
2018-12-17T07:03:04.294Z,99.99
2018-12-17T07:04:04.303Z,99.99
2018-12-17T07:05:04.319Z,99.99
2018-12-17T07:06:04.330Z,99.99
2018-12-17T07:07:04.338Z,99.99
2018-12-17T07:08:04.350Z,99.99
2018-12-17T07:09:04.369Z,99.99
2018-12-17T07:10:04.379Z,99.99
2018-12-17T07:11:04.397Z,99.99
2018-12-17T07:12:04.405Z,99.99
2018-12-17T07:13:04.426Z,99.99
2018-12-17T07:14:04.429Z,99.99
2018-12-17T07:15:04.453Z,99.99
2018-12-17T07:16:04.467Z,99.99
2018-12-17T07:17:04.474Z,99.99
2018-12-17T07:18:04.512Z,99.99
2018-12-17T07:19:04.494Z,99.99
2018-12-17T07:20:04.510Z,99.99
2018-12-17T07:21:04.520Z,99.99
2018-12-17T07:22:04.542Z,99.99
2018-12-17T07:23:04.564Z,99.99
2018-12-17T07:24:04.560Z,99.99
2018-12-17T07:25:04.581Z,99.99
2018-12-17T07:26:04.595Z,99.99
2018-12-17T07:27:04.615Z,99.99
2018-12-17T07:29:04.667Z,99.99
2018-12-17T07:30:04.639Z,99.99
2018-12-17T07:31:04.651Z,99.99
2018-12-17T07:32:04.715Z,99.99
2018-12-17T07:33:04.683Z,99.99
2018-12-17T07:34:04.691Z,99.99
2018-12-17T07:35:04.725Z,99.99
2018-12-17T07:36:04.730Z,99.99
2018-12-17T07:37:04.733Z,99.99
2018-12-17T07:38:04.740Z,99.99
2018-12-17T07:39:04.749Z,99.99
2018-12-17T07:40:04.765Z,99.99
2018-12-17T07:41:04.783Z,99.99
2018-12-17T07:42:04.803Z,99.99
2018-12-17T07:43:04.803Z,99.99
2018-12-17T07:44:04.826Z,99.99
2018-12-17T07:45:05.308Z,99.99
2018-12-17T07:46:04.839Z,99.99
2018-12-17T07:47:04.858Z,99.99
2018-12-17T07:48:04.865Z,99.99
2018-12-17T07:49:04.924Z,99.99
2018-12-17T07:50:04.890Z,99.99
2018-12-17T07:51:04.915Z,99.99
2018-12-17T07:52:04.916Z,99.99
2018-12-17T07:53:04.942Z,99.99
2018-12-17T07:54:04.958Z,99.99
2018-12-17T07:55:04.963Z,99.99
2018-12-17T07:56:04.966Z,99.99
2018-12-17T07:57:04.980Z,99.99
2018-12-17T07:58:04.999Z,99.99
2018-12-17T07:59:05.005Z,99.99
2018-12-17T08:00:05.108Z,99.99
2018-12-17T08:01:05.036Z,99.99
2018-12-17T08:02:05.055Z,99.99
2018-12-17T08:03:05.086Z,99.99
2018-12-17T08:04:05.137Z,99.99
2018-12-17T08:05:05.086Z,99.99
2018-12-17T08:06:05.091Z,99.99
2018-12-17T08:07:05.106Z,99.99
2018-12-17T08:08:05.131Z,99.99
2018-12-17T08:09:05.172Z,99.99
2018-12-17T08:10:05.145Z,99.99
2018-12-17T08:11:05.166Z,99.99
2018-12-17T08:12:05.177Z,99.99
2018-12-17T08:13:05.188Z,99.99
2018-12-17T08:14:05.197Z,99.99
2018-12-17T08:15:05.220Z,99.99
2018-12-17T08:16:05.227Z,99.99
2018-12-17T08:17:05.285Z,99.99
2018-12-17T08:18:05.246Z,99.99
2018-12-17T08:19:05.258Z,99.99
2018-12-17T08:20:05.275Z,99.99
2018-12-17T08:21:05.292Z,99.99
2018-12-17T08:22:05.297Z,99.97
2018-12-17T08:23:05.312Z,99.99
2018-12-17T08:24:05.328Z,99.99
2018-12-17T08:25:05.342Z,99.99
2018-12-17T08:26:05.349Z,99.99
2018-12-17T08:27:05.376Z,99.99
2018-12-17T08:28:05.387Z,99.99
2018-12-17T08:29:05.394Z,99.87
2018-12-17T08:30:05.408Z,99.87
2018-12-17T08:31:05.419Z,99.99
2018-12-17T08:32:05.428Z,99.82
2018-12-17T08:33:05.442Z,99.40
2018-12-17T08:34:05.503Z,99.91
2018-12-17T08:35:05.467Z,99.99
2018-12-17T08:36:05.482Z,99.99
2018-12-17T08:37:05.494Z,99.35
2018-12-17T08:38:05.504Z,99.16
2018-12-17T08:39:05.527Z,99.44
2018-12-17T08:40:05.542Z,99.63
2018-12-17T08:41:05.539Z,99.21
2018-12-17T08:42:05.568Z,99.02
2018-12-17T08:43:05.569Z,99.16
2018-12-17T08:44:05.586Z,99.35
2018-12-17T08:45:05.609Z,99.99
2018-12-17T08:46:05.603Z,99.99
2018-12-17T08:47:05.760Z,99.68
2018-12-17T08:48:05.636Z,99.63
2018-12-17T08:49:05.651Z,99.63
2018-12-17T08:50:05.747Z,99.26
2018-12-17T08:51:05.679Z,99.63
2018-12-17T08:52:05.679Z,99.91
2018-12-17T08:53:05.699Z,99.54
2018-12-17T08:54:05.721Z,99.68
2018-12-17T08:55:05.740Z,99.73
2018-12-17T08:56:05.737Z,99.73
2018-12-17T08:57:05.746Z,99.58
2018-12-17T08:58:05.760Z,99.21
2018-12-17T08:59:05.776Z,98.92
2018-12-17T09:00:11.065Z,99.35
2018-12-17T09:01:05.825Z,99.11
2018-12-17T09:02:05.809Z,98.83
2018-12-17T09:03:05.833Z,98.83
2018-12-17T09:04:05.846Z,99.35
2018-12-17T09:05:05.856Z,99.82
2018-12-17T09:06:05.861Z,99.91
2018-12-17T09:07:05.876Z,99.99
2018-12-17T09:08:05.942Z,99.58
2018-12-17T09:09:05.897Z,99.73
2018-12-17T09:10:05.915Z,99.99
2018-12-17T09:11:05.926Z,99.99
2018-12-17T09:12:05.937Z,99.99
2018-12-17T09:13:05.952Z,99.58
2018-12-17T09:14:05.973Z,99.97
2018-12-17T09:15:05.984Z,99.91
2018-12-17T09:16:05.994Z,99.99
2018-12-17T09:17:06.009Z,99.99
2018-12-17T09:18:07.295Z,99.99
2018-12-17T09:19:06.117Z,99.68
2018-12-17T09:20:06.036Z,99.30
2018-12-17T09:21:06.057Z,99.73
2018-12-17T09:22:06.066Z,99.82
2018-12-17T09:23:06.081Z,99.97
2018-12-17T09:24:06.099Z,99.11
2018-12-17T09:25:06.111Z,99.21
2018-12-17T09:26:06.116Z,99.49
2018-12-17T09:27:06.131Z,99.87
2018-12-17T09:28:06.138Z,99.30
2018-12-17T09:29:06.161Z,99.21
2018-12-17T09:30:06.165Z,99.21
2018-12-17T09:31:06.177Z,99.87
2018-12-17T09:32:06.196Z,99.87
2018-12-17T09:33:06.202Z,98.92
2018-12-17T09:34:06.219Z,99.11
2018-12-17T09:35:06.229Z,99.54
2018-12-17T09:36:06.253Z,98.92
2018-12-17T09:37:06.263Z,99.58
2018-12-17T09:38:06.287Z,99.16
2018-12-17T09:39:06.290Z,99.97
2018-12-17T09:40:06.288Z,98.73
2018-12-17T09:41:06.349Z,98.73
2018-12-17T09:42:06.314Z,99.35
2018-12-17T09:43:06.347Z,99.06
2018-12-17T09:44:06.343Z,99.02
2018-12-17T09:45:06.364Z,98.73
2018-12-17T09:46:06.378Z,99.35
2018-12-17T09:47:06.383Z,98.83
2018-12-17T09:48:06.394Z,99.02
2018-12-17T09:49:06.408Z,98.73
2018-12-17T09:50:06.420Z,99.02
2018-12-17T09:51:06.431Z,98.83
2018-12-17T09:52:06.450Z,98.54
2018-12-17T09:53:06.469Z,98.73
2018-12-17T09:54:06.467Z,98.54
2018-12-17T09:55:06.495Z,97.97
2018-12-17T09:56:06.496Z,98.07
2018-12-17T09:57:06.509Z,98.92
2018-12-17T09:58:06.529Z,99.02
2018-12-17T09:59:06.533Z,99.26
2018-12-17T10:00:06.552Z,99.82
2018-12-17T10:01:06.590Z,99.40
2018-12-17T10:02:06.572Z,99.40
2018-12-17T10:03:06.595Z,98.83
2018-12-17T10:04:06.600Z,98.83
2018-12-17T10:05:06.610Z,98.54
2018-12-17T10:06:06.683Z,98.64
2018-12-17T10:07:06.632Z,98.83
2018-12-17T10:08:06.645Z,97.97
2018-12-17T10:09:06.666Z,98.26
2018-12-17T10:10:06.746Z,98.35
2018-12-17T10:11:07.076Z,98.16
2018-12-17T10:12:06.715Z,98.54
2018-12-17T10:13:06.721Z,98.45
2018-12-17T10:14:06.723Z,98.64
2018-12-17T10:15:06.749Z,98.73
2018-12-17T10:16:06.751Z,98.92
2018-12-17T10:17:06.794Z,98.78
2018-12-17T10:18:06.774Z,99.99
2018-12-17T10:19:06.839Z,99.87
2018-12-17T10:20:06.813Z,99.21
2018-12-17T10:21:06.819Z,99.21
2018-12-17T10:22:08.179Z,98.73
2018-12-17T10:23:06.882Z,98.83
2018-12-17T10:24:06.853Z,98.45
2018-12-17T10:25:06.867Z,98.64
2018-12-17T10:26:06.901Z,98.54
2018-12-17T10:27:06.941Z,98.54
2018-12-17T10:28:06.904Z,98.73
2018-12-17T10:29:06.946Z,98.73
2018-12-17T10:30:06.961Z,99.02
2018-12-17T10:31:06.945Z,99.26
2018-12-17T10:32:06.956Z,99.77
2018-12-17T10:33:06.972Z,99.21
2018-12-17T10:34:07.002Z,98.54
2018-12-17T10:35:07.062Z,98.92
2018-12-17T10:36:07.011Z,98.54
2018-12-17T10:37:07.015Z,99.40
2018-12-17T10:38:07.049Z,98.64
2018-12-17T10:39:07.122Z,98.45
2018-12-17T10:40:07.063Z,99.30
2018-12-17T10:41:07.085Z,98.73
2018-12-17T10:42:07.088Z,98.45
2018-12-17T10:43:07.115Z,98.64
2018-12-17T10:44:07.123Z,99.21
2018-12-17T10:45:07.135Z,99.97
2018-12-17T10:46:07.150Z,99.49
2018-12-17T10:47:07.143Z,99.11
2018-12-17T10:48:07.174Z,99.30
2018-12-17T10:49:07.171Z,98.73
2018-12-17T10:50:07.182Z,98.92
2018-12-17T10:51:07.206Z,99.11
2018-12-17T10:52:07.209Z,99.02
2018-12-17T10:53:07.259Z,99.21
2018-12-17T10:54:07.234Z,99.30
2018-12-17T10:55:07.331Z,99.40
2018-12-17T10:56:07.271Z,99.58
2018-12-17T10:57:07.294Z,99.58
2018-12-17T10:58:07.285Z,99.21
2018-12-17T10:59:07.302Z,99.40
2018-12-17T11:00:07.334Z,99.11
2018-12-17T11:01:07.340Z,99.02
2018-12-17T11:02:07.352Z,99.77
2018-12-17T11:03:07.358Z,99.99
2018-12-17T11:04:07.378Z,99.99
2018-12-17T11:05:07.372Z,99.99
2018-12-17T11:06:07.403Z,99.99
2018-12-17T11:07:07.399Z,99.99
2018-12-17T11:08:07.414Z,99.99
2018-12-17T11:09:07.426Z,99.97
2018-12-17T11:10:07.474Z,98.92
2018-12-17T11:11:07.474Z,99.58
2018-12-17T11:12:07.535Z,99.99
2018-12-17T11:13:07.491Z,99.58
2018-12-17T11:14:07.499Z,99.58
2018-12-17T11:15:07.519Z,99.87
2018-12-17T11:16:07.538Z,99.68
2018-12-17T11:17:07.529Z,99.77
2018-12-17T11:18:07.560Z,99.11
2018-12-17T11:19:07.562Z,99.11
2018-12-17T11:20:07.573Z,99.40
2018-12-17T11:21:07.589Z,99.77
2018-12-17T11:22:07.608Z,99.49
2018-12-17T11:23:07.610Z,99.77
2018-12-17T11:24:07.639Z,99.77
2018-12-17T11:25:07.633Z,99.99
2018-12-17T11:26:07.652Z,99.58
2018-12-17T11:27:07.685Z,99.99
2018-12-17T11:28:07.685Z,99.99
2018-12-17T11:29:07.765Z,99.99
2018-12-17T11:30:07.704Z,99.99
2018-12-17T11:31:07.715Z,99.99
2018-12-17T11:32:11.607Z,99.99
2018-12-17T11:33:07.733Z,99.99
2018-12-17T11:34:07.810Z,99.99
2018-12-17T11:35:07.768Z,99.99
2018-12-17T11:36:07.798Z,99.99
2018-12-17T11:37:07.788Z,99.99
2018-12-17T11:38:07.802Z,99.99
2018-12-17T11:39:07.813Z,99.99
2018-12-17T11:40:07.837Z,99.99
2018-12-17T11:41:07.837Z,99.99
2018-12-17T11:42:07.866Z,99.99
2018-12-17T11:43:07.878Z,99.99
2018-12-17T11:44:07.891Z,99.99
2018-12-17T11:45:07.899Z,99.99
2018-12-17T11:46:07.904Z,99.99
2018-12-17T11:47:07.935Z,99.99
2018-12-17T11:48:07.936Z,99.99
2018-12-17T11:49:07.945Z,99.99
2018-12-17T11:50:07.961Z,99.99
2018-12-17T11:51:07.969Z,99.99
2018-12-17T11:52:08.006Z,99.99
2018-12-17T11:53:07.996Z,99.99
2018-12-17T11:54:08.010Z,99.99
2018-12-17T11:55:08.018Z,99.99
2018-12-17T11:56:08.060Z,99.99
2018-12-17T11:57:08.192Z,99.99
2018-12-17T11:58:08.091Z,99.99
2018-12-17T11:59:08.075Z,99.99
2018-12-17T12:00:08.112Z,99.99
2018-12-17T12:01:08.109Z,99.99
2018-12-17T12:03:08.156Z,99.99
2018-12-17T12:04:08.147Z,99.99
2018-12-17T12:05:08.197Z,99.99
2018-12-17T12:06:14.002Z,99.99
2018-12-17T12:07:08.205Z,99.99
2018-12-17T12:08:08.219Z,99.99
2018-12-17T12:09:08.208Z,99.99
2018-12-17T12:10:08.226Z,99.99
2018-12-17T12:11:08.231Z,99.99
2018-12-17T12:12:08.245Z,99.99
2018-12-17T12:13:08.266Z,99.99
2018-12-17T12:14:08.321Z,99.99
2018-12-17T12:15:08.287Z,99.99
2018-12-17T12:16:08.303Z,99.99
2018-12-17T12:17:08.310Z,99.99
2018-12-17T12:18:08.325Z,99.99
2018-12-17T12:19:08.337Z,99.99
2018-12-17T12:20:08.353Z,99.99
2018-12-17T12:21:08.361Z,99.99
2018-12-17T12:22:08.384Z,99.99
2018-12-17T12:23:08.396Z,99.99
2018-12-17T12:24:08.423Z,99.99
2018-12-17T12:26:08.436Z,99.99
2018-12-17T12:27:08.460Z,99.99
2018-12-17T12:29:08.466Z,99.99
2018-12-17T12:30:08.487Z,99.99
2018-12-17T12:31:08.502Z,99.99
2018-12-17T12:32:08.510Z,99.99
2018-12-17T12:33:08.517Z,99.99
2018-12-17T12:34:08.534Z,99.99
2018-12-17T12:35:08.558Z,99.99
2018-12-17T12:36:08.559Z,99.99
2018-12-17T12:38:08.583Z,99.99
2018-12-17T12:39:08.601Z,99.99
2018-12-17T12:40:08.618Z,99.99
2018-12-17T12:41:08.626Z,99.99
2018-12-17T12:42:08.634Z,99.99
2018-12-17T12:43:08.662Z,99.99
2018-12-17T12:44:08.991Z,99.99
2018-12-17T12:45:08.698Z,99.99
2018-12-17T12:46:08.701Z,99.99
2018-12-17T12:47:08.719Z,99.99
2018-12-17T12:48:08.788Z,99.99
2018-12-17T12:49:08.734Z,99.99
2018-12-17T12:50:08.745Z,99.99
2018-12-17T12:51:08.765Z,99.99
2018-12-17T12:52:08.794Z,99.99
2018-12-17T12:53:08.798Z,99.99
2018-12-17T12:54:08.799Z,99.99
2018-12-17T12:55:08.809Z,99.99
2018-12-17T12:56:08.833Z,99.99
2018-12-17T12:58:10.115Z,99.99
2018-12-17T12:59:09.690Z,99.99
2018-12-17T13:00:10.516Z,99.99
2018-12-17T13:01:08.902Z,99.99
2018-12-17T13:02:08.902Z,99.99
2018-12-17T13:03:08.918Z,99.99
2018-12-17T13:04:08.938Z,99.99
2018-12-17T13:05:08.960Z,99.99
2018-12-17T13:06:08.980Z,99.99
2018-12-17T13:07:08.988Z,99.99
2018-12-17T13:08:08.984Z,99.99
2018-12-17T13:09:09.014Z,99.99
2018-12-17T13:10:09.018Z,99.99
2018-12-17T13:11:09.027Z,99.99
2018-12-17T13:12:09.042Z,99.99
2018-12-17T13:13:09.060Z,99.99
2018-12-17T13:14:09.098Z,99.99
2018-12-17T13:15:09.079Z,99.99
2018-12-17T13:16:09.208Z,99.99
2018-12-17T13:17:09.102Z,99.99